Time;durP1;ratioP1;P1;durP2;ratioP2;P2;SDS_P1;SDS_P2;PMS_P1;PMS_P2;Temp;Humidity;BMP_temperature;BMP_pressure;BME280_temperature;BME280_humidity;BME280_pressure;Samples;Min_cycle;Max_cycle;Signal;HPM_P1;HPM_P2
2021/11/13 00:01:10;;;;;;;49.30;37.40;;;;;;;5.93;80.43;101096.88;6163022;28;20580;-64
2021/11/13 00:04:31;;;;;;;53.40;36.97;;;;;;;6.13;80.59;101104.06;6160489;28;20532;-64
2021/11/13 00:07:52;;;;;;;48.20;32.47;;;;;;;6.02;79.58;101104.78;6158988;28;20254;-63
2021/11/13 00:11:15;;;;;;;47.67;34.40;;;;;;;6.37;78.79;101104.41;6154064;28;20342;-64
2021/11/13 00:14:36;;;;;;;48.90;33.73;;;;;;;6.68;77.59;101109.94;6154593;28;20218;-66
2021/11/13 00:17:59;;;;;;;51.23;37.40;;;;;;;6.46;78.13;101107.13;6154231;28;20791;-65
2021/11/13 00:21:20;;;;;;;52.80;35.57;;;;;;;6.04;80.26;101087.59;6157804;28;20216;-64
2021/11/13 00:24:40;;;;;;;53.67;37.30;;;;;;;5.85;80.44;101083.81;6155336;28;20327;-64
2021/11/13 00:28:03;;;;;;;56.43;37.40;;;;;;;5.94;80.58;101087.41;6162482;28;20226;-64
2021/11/13 00:31:24;;;;;;;59.00;36.43;;;;;;;6.14;80.30;101085.13;6158473;28;20203;-63
2021/11/13 00:34:45;;;;;;;52.47;36.07;;;;;;;5.94;80.45;101080.53;6163358;28;20218;-64
2021/11/13 00:38:06;;;;;;;56.67;38.60;;;;;;;6.11;80.50;101079.06;6160658;28;20239;-64
2021/11/13 00:41:27;;;;;;;53.30;38.03;;;;;;;6.02;80.30;101068.59;6162339;28;20219;-63
2021/11/13 00:44:51;;;;;;;48.57;35.50;;;;;;;6.42;79.34;101074.28;6155154;28;20231;-64
2021/11/13 00:48:12;;;;;;;51.90;36.70;;;;;;;5.81;81.19;101076.03;6164163;28;20226;-64
2021/11/13 00:51:37;;;;;;;52.80;36.97;;;;;;;6.15;80.07;101076.53;6157859;28;21078;-63
2021/11/13 00:54:58;;;;;;;47.90;34.73;;;;;;;6.23;80.37;101074.91;6166115;28;20206;-64
2021/11/13 00:58:19;;;;;;;47.90;34.90;;;;;;;6.50;78.65;101079.56;6163669;28;20624;-64
2021/11/13 01:01:42;;;;;;;51.40;34.47;;;;;;;6.26;78.84;101080.09;6160635;28;20219;-63
2021/11/13 01:05:04;;;;;;;49.00;36.90;;;;;;;6.20;79.53;101090.38;6164212;28;20234;-64
2021/11/13 01:08:24;;;;;;;47.97;32.53;;;;;;;6.57;78.68;101076.19;6162829;28;20238;-65
2021/11/13 01:11:46;;;;;;;45.93;32.43;;;;;;;6.68;77.29;101069.41;6162104;28;20564;-64
2021/11/13 01:15:09;;;;;;;43.80;32.50;;;;;;;6.31;78.65;101053.44;6163699;28;20741;-64
2021/11/13 01:18:31;;;;;;;48.43;33.70;;;;;;;6.32;78.65;101067.28;6161425;28;20235;-64
2021/11/13 01:21:52;;;;;;;52.47;35.40;;;;;;;6.10;79.45;101069.56;6162941;28;20206;-64
2021/11/13 01:25:14;;;;;;;50.17;34.77;;;;;;;5.92;79.67;101074.47;6164479;28;20597;-63
2021/11/13 01:28:36;;;;;;;52.07;36.80;;;;;;;5.73;80.80;101078.50;6165347;28;20230;-64
2021/11/13 01:31:57;;;;;;;46.60;34.43;;;;;;;5.81;80.36;101094.13;6165391;28;20231;-64
2021/11/13 01:35:21;;;;;;;51.13;34.43;;;;;;;5.85;80.33;101088.13;6165759;28;20211;-64
2021/11/13 01:38:43;;;;;;;48.57;35.60;;;;;;;5.57;80.63;101092.03;6165646;28;20223;-64
2021/11/13 01:42:06;;;;;;;45.57;34.13;;;;;;;6.31;79.33;101076.72;6165595;28;20230;-64
2021/11/13 01:45:28;;;;;;;44.27;32.93;;;;;;;6.41;78.27;101080.31;6164321;28;20604;-64
2021/11/13 01:48:49;;;;;;;49.57;36.63;;;;;;;5.79;79.85;101070.81;6163791;28;20234;-64
2021/11/13 01:52:13;;;;;;;51.03;36.37;;;;;;;5.68;80.58;101064.63;6164347;28;20227;-64
2021/11/13 01:55:36;;;;;;;46.40;32.43;;;;;;;6.08;80.00;101060.91;6166181;28;20215;-64
2021/11/13 01:58:59;;;;;;;39.13;30.83;;;;;;;6.30;78.89;101056.00;6163771;28;20242;-64
2021/11/13 02:02:20;;;;;;;47.73;33.53;;;;;;;6.01;79.50;101059.13;6161434;28;21293;-64
2021/11/13 02:05:41;;;;;;;47.00;35.00;;;;;;;5.92;79.22;101054.66;6163008;28;20286;-64
2021/11/13 02:09:06;;;;;;;44.47;32.57;;;;;;;6.02;79.31;101047.91;6162095;28;20230;-64
2021/11/13 02:12:27;;;;;;;42.67;31.57;;;;;;;6.04;78.55;101055.69;6165417;28;20620;-64
2021/11/13 02:15:48;;;;;;;45.43;33.03;;;;;;;5.91;80.00;101057.19;6168468;28;20830;-64
2021/11/13 02:19:09;;;;;;;47.03;34.00;;;;;;;5.59;80.43;101054.16;6160675;28;20485;-64
2021/11/13 02:22:31;;;;;;;46.30;33.87;;;;;;;6.14;78.87;101054.09;6162461;28;20305;-64
2021/11/13 02:25:54;;;;;;;46.90;35.73;;;;;;;5.96;79.40;101045.25;6161199;28;20207;-64
2021/11/13 02:29:16;;;;;;;48.70;36.07;;;;;;;6.04;78.96;101056.56;6162848;28;20232;-64
2021/11/13 02:32:38;;;;;;;41.90;31.70;;;;;;;6.66;77.07;101053.00;6164244;28;20309;-64
2021/11/13 02:35:59;;;;;;;40.00;30.00;;;;;;;6.69;76.37;101054.75;6164834;28;20298;-64
2021/11/13 02:39:23;;;;;;;44.77;31.83;;;;;;;6.14;78.06;101061.84;6164906;28;20219;-64
2021/11/13 02:42:44;;;;;;;38.97;30.63;;;;;;;6.48;77.50;101055.38;6162850;28;20627;-64
2021/11/13 02:46:07;;;;;;;40.07;31.00;;;;;;;6.02;79.04;101059.97;6166442;28;20247;-65
2021/11/13 02:49:29;;;;;;;38.93;30.17;;;;;;;5.46;79.92;101066.03;6166696;28;20223;-64
2021/11/13 02:52:52;;;;;;;41.43;33.13;;;;;;;5.65;80.35;101052.53;6161774;28;20313;-64
2021/11/13 02:56:14;;;;;;;39.60;30.23;;;;;;;5.94;79.95;101056.41;6158558;28;20465;-64
2021/11/13 02:59:35;;;;;;;40.87;31.80;;;;;;;5.73;79.37;101053.50;6158381;28;20216;-64
2021/11/13 03:02:57;;;;;;;36.63;28.63;;;;;;;6.07;78.92;101043.69;6160614;28;20230;-64
2021/11/13 03:06:18;;;;;;;43.57;32.93;;;;;;;6.14;78.01;101041.16;6157718;28;20203;-64
2021/11/13 03:09:39;;;;;;;44.20;33.07;;;;;;;5.98;78.72;101040.97;6153995;28;20558;-64
2021/11/13 03:13:02;;;;;;;41.70;30.33;;;;;;;6.41;77.05;101044.09;6163120;28;20259;-64
2021/11/13 03:16:24;;;;;;;38.83;31.47;;;;;;;5.96;78.55;101041.81;6161157;28;20287;-64
2021/11/13 03:19:44;;;;;;;38.37;29.77;;;;;;;6.20;78.15;101033.47;6160391;28;20218;-64
2021/11/13 03:23:05;;;;;;;40.17;30.77;;;;;;;6.09;78.50;101035.94;6159204;28;20262;-63
2021/11/13 03:26:29;;;;;;;44.63;35.40;;;;;;;6.05;78.21;101039.34;6160714;28;20196;-64
2021/11/13 03:29:52;;;;;;;40.50;30.33;;;;;;;6.44;76.88;101027.75;6159366;28;20239;-64
2021/11/13 03:33:13;;;;;;;40.97;33.40;;;;;;;6.41;76.78;101028.56;6159617;28;20222;-64
2021/11/13 03:36:34;;;;;;;42.33;32.40;;;;;;;6.42;76.28;101032.91;6161003;28;20428;-64
2021/11/13 03:39:54;;;;;;;40.20;31.10;;;;;;;6.18;77.73;101042.94;6156125;28;20237;-64
2021/11/13 03:43:16;;;;;;;38.43;29.13;;;;;;;6.65;76.87;101040.03;6165445;28;20238;-64
2021/11/13 03:46:39;;;;;;;40.93;30.77;;;;;;;6.29;77.14;101038.78;6160183;28;20585;-64
2021/11/13 03:50:00;;;;;;;34.93;26.50;;;;;;;6.70;76.17;101035.78;6161472;28;20227;-64
2021/11/13 03:53:21;;;;;;;36.43;29.43;;;;;;;6.84;75.34;101031.63;6161707;28;20230;-64
2021/11/13 03:56:42;;;;;;;35.57;29.17;;;;;;;6.63;75.43;101028.78;6160467;28;20561;-63
2021/11/13 04:00:06;;;;;;;36.70;29.30;;;;;;;6.58;76.41;101041.69;6162921;28;20211;-63
2021/11/13 04:03:35;;;;;;;34.27;25.83;;;;;;;6.67;76.23;101038.34;6161541;28;20269;-64
2021/11/13 04:06:56;;;;;;;35.93;29.73;;;;;;;6.69;76.48;101034.91;6159661;28;20317;-63
2021/11/13 04:10:18;;;;;;;35.70;30.20;;;;;;;6.81;74.81;101038.50;6162088;28;20242;-64
2021/11/13 04:13:39;;;;;;;38.83;29.60;;;;;;;7.13;74.45;101033.59;6159499;28;20250;-65
2021/11/13 04:17:01;;;;;;;31.83;27.40;;;;;;;6.89;74.25;101037.69;6162629;28;20231;-64
2021/11/13 04:20:23;;;;;;;34.87;29.20;;;;;;;6.57;75.77;101044.25;6160003;28;20632;-65
2021/11/13 04:23:44;;;;;;;36.50;29.80;;;;;;;6.46;76.88;101034.66;6159555;28;20345;-64
2021/11/13 04:27:06;;;;;;;37.57;29.93;;;;;;;6.30;77.24;101036.22;6163333;28;20256;-64
2021/11/13 04:30:27;;;;;;;42.13;30.93;;;;;;;6.43;77.02;101046.69;6160525;28;20207;-64
2021/11/13 04:33:48;;;;;;;39.20;30.23;;;;;;;6.66;76.62;101039.19;6161428;28;20230;-64
2021/11/13 04:37:15;;;;;;;39.80;30.07;;;;;;;6.59;76.90;101032.19;6146132;28;20333;-64
2021/11/13 04:40:37;;;;;;;40.00;31.73;;;;;;;6.58;76.83;101036.53;6162814;28;20239;-64
2021/11/13 04:43:58;;;;;;;37.20;27.17;;;;;;;6.27;76.94;101043.06;6162391;28;20219;-63
2021/11/13 04:47:19;;;;;;;37.67;30.60;;;;;;;6.30;78.03;101045.66;6160489;28;20238;-63
2021/11/13 04:50:40;;;;;;;44.33;32.07;;;;;;;6.21;78.24;101046.44;6158583;28;20196;-64
2021/11/13 04:54:03;;;;;;;38.27;30.13;;;;;;;6.50;77.17;101039.03;6157362;28;20231;-63
2021/11/13 04:57:24;;;;;;;40.37;30.63;;;;;;;6.38;76.92;101045.75;6159796;28;20231;-64
2021/11/13 05:00:45;;;;;;;36.33;29.70;;;;;;;6.67;77.11;101054.75;6159316;28;20297;-63
2021/11/13 05:04:05;;;;;;;40.30;32.63;;;;;;;6.43;78.04;101063.06;6162939;28;20267;-64
2021/11/13 05:07:26;;;;;;;38.90;30.40;;;;;;;6.59;77.68;101058.09;6161939;28;20250;-64
2021/11/13 05:10:50;;;;;;;34.60;30.60;;;;;;;6.20;79.03;101069.69;6160091;28;20588;-64
2021/11/13 05:14:10;;;;;;;36.17;30.17;;;;;;;6.37;79.54;101057.84;6161570;28;20696;-64
2021/11/13 05:17:32;;;;;;;39.07;29.03;;;;;;;6.71;77.84;101058.22;6158107;28;20608;-65
2021/11/13 05:20:59;;;;;;;41.30;31.90;;;;;;;6.90;77.58;101046.31;6161581;28;20192;-64
2021/11/13 05:24:20;;;;;;;36.30;27.27;;;;;;;6.49;77.62;101052.81;6157269;28;20234;-65
2021/11/13 05:27:42;;;;;;;35.63;28.03;;;;;;;6.67;78.94;101051.28;6162898;28;20447;-64
2021/11/13 05:31:04;;;;;;;37.57;29.73;;;;;;;6.98;77.19;101051.56;6160121;28;20199;-64
2021/11/13 05:34:25;;;;;;;37.97;30.23;;;;;;;6.99;76.71;101058.50;6165118;28;20243;-64
2021/11/13 05:37:48;;;;;;;40.07;29.00;;;;;;;6.72;77.34;101064.28;6161260;28;20280;-64
2021/11/13 05:41:09;;;;;;;42.20;31.03;;;;;;;6.29;79.62;101068.09;6161883;28;20653;-64
2021/11/13 05:44:32;;;;;;;40.50;31.30;;;;;;;6.40;79.54;101072.56;6161025;28;20220;-64
2021/11/13 05:47:53;;;;;;;40.33;30.37;;;;;;;6.56;78.94;101076.19;6163864;28;20253;-63
2021/11/13 05:51:14;;;;;;;38.13;29.53;;;;;;;6.44;79.95;101063.97;6159039;28;20218;-64
2021/11/13 05:54:35;;;;;;;39.43;31.47;;;;;;;6.76;78.87;101061.72;6158573;28;20219;-64
2021/11/13 05:57:57;;;;;;;37.50;31.53;;;;;;;6.40;79.22;101062.19;6166637;28;20254;-65
2021/11/13 06:01:20;;;;;;;37.97;29.53;;;;;;;6.39;80.55;101074.25;6156926;28;20208;-64
2021/11/13 06:04:43;;;;;;;38.33;30.33;;;;;;;6.59;79.81;101060.66;6156052;28;20234;-64
2021/11/13 06:08:05;;;;;;;35.40;30.30;;;;;;;6.46;79.63;101073.47;6154758;28;20230;-64
2021/11/13 06:11:26;;;;;;;45.30;30.63;;;;;;;6.24;81.20;101068.88;6161966;28;20282;-63
2021/11/13 06:14:47;;;;;;;37.57;30.83;;;;;;;6.20;81.03;101065.38;6164089;28;20215;-64
2021/11/13 06:18:09;;;;;;;42.30;32.23;;;;;;;6.05;82.11;101070.38;6166878;28;20226;-64
2021/11/13 06:21:32;;;;;;;43.10;29.70;;;;;;;6.25;81.61;101070.63;6161263;28;20212;-64
2021/11/13 06:24:53;;;;;;;47.17;32.00;;;;;;;6.38;80.29;101064.75;6157714;28;20256;-65
2021/11/13 06:28:14;;;;;;;32.77;27.07;;;;;;;6.35;79.96;101074.19;6167686;28;20242;-64
2021/11/13 06:31:35;;;;;;;35.57;29.30;;;;;;;6.00;81.91;101080.63;6162957;28;20460;-64
2021/11/13 06:34:59;;;;;;;37.13;30.77;;;;;;;6.47;80.37;101079.50;6162323;28;20231;-64
2021/11/13 06:38:21;;;;;;;41.50;28.93;;;;;;;6.57;79.41;101080.47;6161506;28;20246;-64
2021/11/13 06:41:41;;;;;;;38.90;30.33;;;;;;;6.68;79.33;101089.25;6158004;28;20466;-64
2021/11/13 06:45:03;;;;;;;37.03;29.43;;;;;;;6.20;80.49;101098.13;6159819;28;20255;-64
2021/11/13 06:48:25;;;;;;;38.23;29.07;;;;;;;6.18;81.70;101102.41;6166098;28;20317;-63
2021/11/13 06:51:47;;;;;;;36.33;28.10;;;;;;;6.68;80.18;101104.78;6161806;28;20713;-64
2021/11/13 06:55:09;;;;;;;37.70;31.03;;;;;;;6.44;80.27;101111.41;6160778;28;20191;-64
2021/11/13 06:58:30;;;;;;;35.27;28.73;;;;;;;6.63;79.49;101112.50;6161771;28;20632;-64
2021/11/13 07:01:52;;;;;;;38.90;29.23;;;;;;;6.58;79.36;101113.28;6159738;28;20293;-64
2021/11/13 07:05:13;;;;;;;36.27;28.03;;;;;;;6.37;79.75;101119.06;6161729;28;20239;-64
2021/11/13 07:08:35;;;;;;;37.20;29.73;;;;;;;6.55;79.48;101129.63;6157280;28;20230;-64
2021/11/13 07:11:56;;;;;;;35.60;29.00;;;;;;;6.45;79.11;101123.47;6160377;28;20640;-64
2021/11/13 07:15:18;;;;;;;35.57;28.80;;;;;;;6.26;80.32;101126.66;6158407;28;20203;-64
2021/11/13 07:18:40;;;;;;;39.03;29.10;;;;;;;6.02;81.87;101125.47;6157880;28;20231;-63
2021/11/13 07:22:01;;;;;;;37.00;29.53;;;;;;;6.31;80.71;101130.19;6159184;28;20238;-64
2021/11/13 07:25:25;;;;;;;35.47;27.63;;;;;;;6.89;79.23;101135.22;6163575;28;20252;-64
2021/11/13 07:28:49;;;;;;;36.53;27.90;;;;;;;6.36;80.12;101136.31;6163586;28;20321;-64
2021/11/13 07:32:10;;;;;;;33.67;28.40;;;;;;;6.32;79.91;101139.72;6156240;28;20258;-64
2021/11/13 07:35:31;;;;;;;34.07;28.03;;;;;;;6.62;80.12;101146.97;6150507;28;20211;-63
2021/11/13 07:38:53;;;;;;;37.43;27.80;;;;;;;6.30;80.80;101154.31;6156451;28;20508;-64
2021/11/13 07:42:15;;;;;;;36.53;28.03;;;;;;;6.57;80.23;101166.78;6160928;28;20833;-64
2021/11/13 07:45:37;;;;;;;31.27;27.00;;;;;;;6.48;79.99;101164.91;6160871;28;20230;-64
2021/11/13 07:48:58;;;;;;;33.77;28.67;;;;;;;6.48;80.38;101167.50;6164053;28;20244;-64
2021/11/13 07:52:18;;;;;;;31.77;26.30;;;;;;;6.41;80.57;101168.25;6160142;28;20777;-64
2021/11/13 07:55:40;;;;;;;33.10;27.80;;;;;;;6.45;80.89;101172.63;6162607;28;20566;-64
2021/11/13 07:59:03;;;;;;;34.13;28.60;;;;;;;6.76;79.70;101179.94;6161659;28;20238;-63
2021/11/13 08:02:24;;;;;;;33.83;28.57;;;;;;;6.81;79.29;101178.28;6158254;28;20222;-64
2021/11/13 08:05:45;;;;;;;31.50;26.17;;;;;;;7.15;78.38;101184.69;6160057;28;20309;-65
2021/11/13 08:09:06;;;;;;;33.03;26.57;;;;;;;6.67;79.46;101185.88;6160719;28;20322;-64
2021/11/13 08:12:27;;;;;;;34.13;27.83;;;;;;;7.00;78.87;101185.41;6161477;28;20230;-64
2021/11/13 08:15:50;;;;;;;30.37;26.33;;;;;;;6.87;79.31;101194.75;6161894;28;20368;-64
2021/11/13 08:19:10;;;;;;;34.17;26.97;;;;;;;6.76;80.06;101185.97;6155500;28;20302;-64
2021/11/13 08:22:34;;;;;;;28.90;24.10;;;;;;;7.07;78.66;101189.78;6153581;28;20259;-64
2021/11/13 08:25:55;;;;;;;36.23;27.63;;;;;;;6.74;79.68;101197.16;6150646;28;20215;-63
2021/11/13 08:29:16;;;;;;;33.60;26.40;;;;;;;6.78;80.12;101192.03;6158588;28;20519;-63
2021/11/13 08:32:39;;;;;;;30.67;26.20;;;;;;;7.06;79.10;101192.38;6151439;28;20854;-64
2021/11/13 08:36:00;;;;;;;34.90;27.40;;;;;;;7.64;79.22;101190.38;6155520;28;20183;-64
2021/11/13 08:39:22;;;;;;;33.83;26.53;;;;;;;7.10;78.70;101200.19;6156082;28;20329;-61
2021/11/13 08:42:44;;;;;;;30.33;27.13;;;;;;;7.28;80.13;101194.34;6151435;28;20239;-64
2021/11/13 08:46:05;;;;;;;30.90;25.80;;;;;;;6.46;80.36;101197.66;6149367;28;20226;-66
2021/11/13 08:49:27;;;;;;;30.67;24.53;;;;;;;6.19;81.38;101197.28;6149660;28;20602;-65
2021/11/13 08:52:50;;;;;;;29.67;24.93;;;;;;;6.55;81.70;101201.22;6158412;28;20223;-66
2021/11/13 08:56:10;;;;;;;35.10;28.47;;;;;;;6.22;82.44;101187.84;6162726;28;20195;-65
2021/11/13 08:59:32;;;;;;;33.43;25.17;;;;;;;6.58;81.80;101191.78;6162925;28;20321;-65
2021/11/13 09:02:54;;;;;;;28.27;24.40;;;;;;;7.00;80.71;101185.41;6162934;28;20231;-65
2021/11/13 09:06:22;;;;;;;29.03;23.80;;;;;;;7.21;79.23;101189.06;6164274;28;20219;-65
2021/11/13 09:09:45;;;;;;;28.60;25.20;;;;;;;7.50;78.35;101191.94;6162972;28;20222;-65
2021/11/13 09:13:06;;;;;;;29.37;25.93;;;;;;;7.42;78.03;101189.28;6165077;28;20596;-66
2021/11/13 09:16:27;;;;;;;29.03;24.93;;;;;;;7.37;78.14;101193.56;6165447;28;20183;-65
2021/11/13 09:19:49;;;;;;;29.27;24.63;;;;;;;6.85;79.72;101204.22;6167144;28;20222;-65
2021/11/13 09:23:13;;;;;;;30.00;25.03;;;;;;;6.84;81.00;101207.66;6162897;28;20219;-65
2021/11/13 09:26:34;;;;;;;29.97;26.13;;;;;;;7.00;79.21;101215.59;6166427;28;20218;-65
2021/11/13 09:29:55;;;;;;;31.03;24.77;;;;;;;6.85;80.58;101222.34;6160698;28;20211;-65
2021/11/13 09:33:16;;;;;;;28.60;24.50;;;;;;;7.54;79.03;101219.66;6148398;28;20514;-65
2021/11/13 09:36:37;;;;;;;28.20;24.23;;;;;;;7.57;78.33;101222.28;6146880;28;20499;-65
2021/11/13 09:40:00;;;;;;;25.17;21.63;;;;;;;7.99;81.37;101223.53;6147667;28;20211;-65
2021/11/13 09:43:22;;;;;;;23.97;21.40;;;;;;;9.04;81.59;101229.38;6158132;28;20231;-65
2021/11/13 09:46:44;;;;;;;27.87;24.33;;;;;;;8.22;76.38;101228.88;6147274;28;20561;-65
2021/11/13 09:50:05;;;;;;;26.83;24.00;;;;;;;7.47;78.84;101223.91;6150359;28;20526;-65
2021/11/13 09:53:27;;;;;;;27.27;24.37;;;;;;;7.36;78.80;101235.88;6159998;28;20513;-65
2021/11/13 09:56:50;;;;;;;26.23;23.40;;;;;;;7.07;80.58;101238.13;6156286;28;20210;-65
2021/11/13 10:00:14;;;;;;;26.90;23.23;;;;;;;7.14;80.90;101236.50;6157152;28;20874;-66
2021/11/13 10:03:36;;;;;;;29.10;23.47;;;;;;;7.32;80.69;101241.03;6161501;28;20230;-65
2021/11/13 10:06:57;;;;;;;33.90;26.33;;;;;;;7.12;81.30;101240.81;6162270;28;20237;-65
2021/11/13 10:10:29;;;;;;;30.63;23.87;;;;;;;7.20;81.52;101249.53;6159229;28;20617;-65
2021/11/13 10:13:54;;;;;;;30.77;25.03;;;;;;;7.74;80.50;101237.13;6163837;28;20553;-64
2021/11/13 10:17:21;;;;;;;28.77;23.27;;;;;;;7.94;79.56;101238.16;6161386;28;20230;-66
2021/11/13 10:20:44;;;;;;;29.63;25.50;;;;;;;8.12;78.82;101245.22;6158429;28;20522;-64
2021/11/13 10:24:11;;;;;;;29.93;24.90;;;;;;;7.94;78.88;101253.72;6160813;28;20512;-64
2021/11/13 10:27:32;;;;;;;26.93;23.13;;;;;;;8.13;78.35;101252.16;6157225;28;20514;-65
2021/11/13 10:31:09;;;;;;;28.23;24.47;;;;;;;7.99;78.39;101249.47;6159646;28;20192;-64
2021/11/13 10:34:34;;;;;;;24.80;22.17;;;;;;;8.37;77.66;101245.41;6158408;28;20231;-65
2021/11/13 10:37:55;;;;;;;26.70;23.80;;;;;;;8.02;77.75;101254.66;6156542;28;20532;-65
2021/11/13 10:41:16;;;;;;;28.87;25.77;;;;;;;8.33;77.83;101247.09;6149429;28;20191;-65
2021/11/13 10:44:39;;;;;;;19.70;17.40;;;;;;;8.18;81.50;101241.81;6163015;28;20512;-65
2021/11/13 10:48:01;;;;;;;26.50;22.60;;;;;;;8.30;78.61;101249.69;6159191;28;20223;-65
2021/11/13 10:51:24;;;;;;;24.83;21.80;;;;;;;8.07;78.93;101237.41;6157870;28;20214;-64
2021/11/13 10:54:49;;;;;;;24.60;22.00;;;;;;;8.42;78.53;101244.63;6162159;28;20222;-64
2021/11/13 10:58:29;;;;;;;26.73;21.30;;;;;;;8.02;79.03;101235.63;6163933;28;20239;-65
2021/11/13 11:01:50;;;;;;;27.90;21.23;;;;;;;7.97;78.90;101240.78;6157515;28;20235;-65
2021/11/13 11:05:16;;;;;;;26.37;22.60;;;;;;;8.08;79.26;101244.34;6161261;28;20215;-65
2021/11/13 11:08:41;;;;;;;28.27;23.00;;;;;;;7.76;80.10;101248.38;6163315;28;20234;-64
2021/11/13 11:12:07;;;;;;;26.73;22.03;;;;;;;7.90;80.32;101246.78;6156592;28;20222;-66
2021/11/13 11:15:40;;;;;;;26.93;21.87;;;;;;;7.47;82.27;101243.78;6163536;28;20778;-65
2021/11/13 11:19:04;;;;;;;25.87;22.43;;;;;;;7.69;81.57;101245.72;6157922;28;20226;-64
2021/11/13 11:22:28;;;;;;;26.33;23.47;;;;;;;7.79;81.72;101243.22;6161395;28;20267;-64
2021/11/13 11:25:49;;;;;;;24.93;20.33;;;;;;;7.94;80.69;101229.53;6159937;28;20541;-64
2021/11/13 11:29:11;;;;;;;22.70;20.27;;;;;;;8.22;79.51;101238.38;6153959;28;20235;-66
2021/11/13 11:32:35;;;;;;;26.77;21.97;;;;;;;8.20;79.68;101242.69;6150059;28;20227;-65
2021/11/13 11:35:56;;;;;;;24.53;20.47;;;;;;;8.20;79.74;101253.06;6157918;28;20218;-65
2021/11/13 11:39:19;;;;;;;27.77;23.43;;;;;;;7.88;80.66;101251.09;6147664;28;20563;-66
2021/11/13 11:42:42;;;;;;;30.60;25.60;;;;;;;9.04;86.48;101250.16;6151412;28;20226;-65
2021/11/13 11:46:03;;;;;;;28.93;23.43;;;;;;;10.59;84.68;101236.44;6157223;28;20230;-66
2021/11/13 11:49:26;;;;;;;24.50;21.67;;;;;;;9.87;77.30;101234.75;6151133;28;20563;-65
2021/11/13 11:52:47;;;;;;;24.40;21.53;;;;;;;9.48;77.49;101244.22;6157297;28;20554;-64
2021/11/13 11:56:10;;;;;;;23.37;19.90;;;;;;;10.33;77.78;101236.47;6154888;28;20187;-65
2021/11/13 11:59:32;;;;;;;29.10;23.70;;;;;;;8.13;79.20;101230.53;6144513;28;20884;-63
2021/11/13 12:02:55;;;;;;;24.27;21.17;;;;;;;8.54;79.88;101236.03;6152882;28;20228;-65
2021/11/13 12:06:16;;;;;;;24.40;21.73;;;;;;;8.76;77.87;101234.44;6149527;28;20218;-65
2021/11/13 12:09:57;;;;;;;25.07;22.37;;;;;;;8.72;78.69;101232.66;6151189;28;20313;-65
2021/11/13 12:13:26;;;;;;;23.83;20.90;;;;;;;8.48;78.81;101225.63;6146853;28;20239;-64
2021/11/13 12:16:47;;;;;;;22.23;19.83;;;;;;;8.60;79.06;101224.81;6149949;28;20194;-65
2021/11/13 12:20:31;;;;;;;22.90;19.13;;;;;;;8.69;78.58;101227.47;6144765;28;20226;-65
2021/11/13 12:23:53;;;;;;;19.63;17.63;;;;;;;9.61;76.57;101222.56;6149064;28;20234;-67
2021/11/13 12:27:14;;;;;;;25.03;22.07;;;;;;;9.73;74.92;101208.72;6150240;28;20235;-66
2021/11/13 12:30:52;;;;;;;21.43;19.13;;;;;;;9.43;77.66;101225.16;6149441;28;20199;-66
2021/11/13 12:34:15;;;;;;;19.57;16.40;;;;;;;9.13;77.01;101232.00;6156434;28;20488;-66
2021/11/13 12:37:36;;;;;;;21.93;18.23;;;;;;;9.81;75.66;101226.94;6157605;28;20230;-66
2021/11/13 12:41:06;;;;;;;18.57;16.20;;;;;;;9.45;75.70;101226.00;6152620;28;20198;-66
2021/11/13 12:44:34;;;;;;;20.97;15.70;;;;;;;9.34;76.29;101232.91;6144945;28;20241;-65
2021/11/13 12:48:07;;;;;;;21.43;16.93;;;;;;;9.29;75.61;101245.06;6151450;28;20238;-65
2021/11/13 12:51:28;;;;;;;24.33;17.57;;;;;;;9.63;75.10;101246.88;6152239;28;20230;-66
2021/11/13 12:55:26;;;;;;;17.57;15.77;;;;;;;8.91;77.65;101258.75;6148147;28;20250;-66
2021/11/13 12:58:58;;;;;;;18.83;15.67;;;;;;;9.01;77.97;101261.38;6159513;28;20230;-65
2021/11/13 13:02:20;;;;;;;16.93;15.10;;;;;;;9.49;76.02;101264.16;6164152;28;20250;-66
2021/11/13 13:05:43;;;;;;;16.50;14.73;;;;;;;9.27;76.97;101269.28;6160578;28;20222;-65
2021/11/13 13:09:05;;;;;;;15.93;13.73;;;;;;;9.74;76.21;101264.22;6157540;28;20235;-65
2021/11/13 13:12:27;;;;;;;15.33;13.83;;;;;;;10.28;75.33;101265.09;6156847;28;20227;-65
2021/11/13 13:15:54;;;;;;;17.63;15.83;;;;;;;9.88;74.28;101257.28;6163920;28;20282;-66
2021/11/13 13:19:15;;;;;;;14.70;12.57;;;;;;;10.02;74.23;101255.56;6159062;28;20238;-66
2021/11/13 13:22:38;;;;;;;19.83;17.83;;;;;;;10.03;74.99;101262.50;6159072;28;20948;-66
2021/11/13 13:26:01;;;;;;;17.20;15.50;;;;;;;9.36;76.03;101273.63;6153730;28;20195;-66
2021/11/13 13:29:23;;;;;;;17.00;15.20;;;;;;;9.19;77.24;101271.00;6157592;28;20230;-67
2021/11/13 13:32:44;;;;;;;16.53;14.17;;;;;;;9.13;77.06;101276.19;6159250;28;20313;-66
2021/11/13 13:36:06;;;;;;;16.07;14.00;;;;;;;9.76;75.58;101273.75;6161238;28;20207;-66
2021/11/13 13:39:28;;;;;;;16.20;14.50;;;;;;;9.88;74.22;101277.22;6157934;28;20242;-66
2021/11/13 13:42:50;;;;;;;14.57;13.07;;;;;;;10.03;74.15;101279.84;6162013;28;20300;-66
2021/11/13 13:46:13;;;;;;;16.10;14.50;;;;;;;9.77;74.65;101279.81;6152850;28;20195;-64
2021/11/13 13:49:34;;;;;;;16.73;14.77;;;;;;;9.80;74.53;101277.22;6158712;28;20231;-65
2021/11/13 13:52:57;;;;;;;16.33;14.60;;;;;;;9.79;74.69;101284.16;6158153;28;20245;-65
2021/11/13 13:56:23;;;;;;;20.37;17.97;;;;;;;9.40;75.84;101291.00;6159930;28;20207;-66
2021/11/13 13:59:46;;;;;;;15.73;14.13;;;;;;;9.58;76.06;101290.19;6160954;28;20226;-66
2021/11/13 14:03:07;;;;;;;17.77;14.07;;;;;;;9.62;76.24;101294.53;6164294;28;20238;-65
2021/11/13 14:06:28;;;;;;;17.63;13.57;;;;;;;9.31;76.92;101292.72;6154019;28;20206;-65
2021/11/13 14:10:04;;;;;;;17.93;15.17;;;;;;;9.64;76.61;101290.19;6148789;28;20929;-64
2021/11/13 14:13:34;;;;;;;17.47;14.73;;;;;;;9.30;77.30;101304.81;6155351;28;20235;-65
2021/11/13 14:16:58;;;;;;;16.83;14.67;;;;;;;9.15;77.34;101304.75;6150913;28;20234;-65
2021/11/13 14:20:22;;;;;;;17.17;15.33;;;;;;;9.54;76.80;101306.66;6143943;28;20230;-65
2021/11/13 14:23:44;;;;;;;18.57;14.97;;;;;;;9.78;75.83;101311.03;6152266;28;20622;-66
2021/11/13 14:27:07;;;;;;;17.77;14.40;;;;;;;9.82;75.75;101317.09;6153691;28;20235;-65
2021/11/13 14:30:36;;;;;;;18.03;16.13;;;;;;;9.61;76.04;101325.72;6135343;28;20256;-66
2021/11/13 14:33:59;;;;;;;19.73;15.93;;;;;;;9.74;75.92;101321.44;6137934;28;20234;-66
2021/11/13 14:37:23;;;;;;;37.10;33.20;;;;;;;9.79;75.15;101317.09;6141518;28;20329;-66
2021/11/13 14:40:57;;;;;;;26.23;23.60;;;;;;;9.86;75.52;101327.50;6139719;28;20199;-66
2021/11/13 14:44:20;;;;;;;23.30;21.00;;;;;;;10.08;74.27;101332.78;6141494;28;20214;-64
2021/11/13 14:47:43;;;;;;;20.70;18.13;;;;;;;10.10;74.66;101344.06;6153648;28;20655;-65
2021/11/13 14:51:12;;;;;;;20.57;18.40;;;;;;;10.19;74.00;101340.59;6156480;28;20796;-64
2021/11/13 14:54:33;;;;;;;19.03;15.47;;;;;;;10.07;74.49;101345.78;6151830;28;20226;-66
2021/11/13 14:57:57;;;;;;;18.33;16.17;;;;;;;10.04;74.45;101351.81;6158499;28;20617;-66
2021/11/13 15:01:23;;;;;;;17.43;15.63;;;;;;;10.03;75.11;101361.38;6146575;28;20645;-65
2021/11/13 15:04:52;;;;;;;28.60;25.50;;;;;;;10.24;74.55;101355.34;6122325;28;20242;-63
2021/11/13 15:08:25;;;;;;;40.03;35.20;;;;;;;10.24;74.53;101364.88;6143080;28;20509;-64
2021/11/13 15:11:47;;;;;;;22.73;20.27;;;;;;;10.37;73.54;101369.28;6133620;28;20238;-64
2021/11/13 15:15:10;;;;;;;20.17;17.87;;;;;;;10.39;73.39;101361.44;6144357;28;20511;-65
2021/11/13 15:18:33;;;;;;;20.43;15.53;;;;;;;9.95;74.85;101373.50;6142619;28;20329;-66
2021/11/13 15:21:56;;;;;;;19.83;16.13;;;;;;;10.19;74.58;101382.22;6139270;28;20234;-65
2021/11/13 15:25:20;;;;;;;19.37;17.03;;;;;;;10.18;74.60;101375.31;6138522;28;20286;-65
2021/11/13 15:28:41;;;;;;;17.20;15.17;;;;;;;10.18;74.83;101383.09;6142488;28;20254;-65
2021/11/13 15:32:04;;;;;;;16.40;14.67;;;;;;;10.31;73.97;101382.25;6148125;28;20239;-65